sensor_id;sensor_type;location;lat;lon;timestamp;pressure;altitude;pressure_sealevel;temperature
48628;BMP280;34424;52.234;6.500;2023-04-09T00:04:44;61896.75;;;8.34
48628;BMP280;34424;52.234;6.500;2023-04-09T00:09:47;61885.28;;;8.32
48628;BMP280;34424;52.234;6.500;2023-04-09T00:14:51;61929.88;;;8.30
48628;BMP280;34424;52.234;6.500;2023-04-09T00:19:54;61894.00;;;8.28
48628;BMP280;34424;52.234;6.500;2023-04-09T00:24:56;61903.31;;;8.27
48628;BMP280;34424;52.234;6.500;2023-04-09T00:30:01;61913.25;;;8.29
48628;BMP280;34424;52.234;6.500;2023-04-09T00:35:04;61870.09;;;8.28
48628;BMP280;34424;52.234;6.500;2023-04-09T00:40:07;61900.72;;;8.27
48628;BMP280;34424;52.234;6.500;2023-04-09T00:45:11;61889.75;;;8.24
48628;BMP280;34424;52.234;6.500;2023-04-09T00:50:15;61878.72;;;8.19
48628;BMP280;34424;52.234;6.500;2023-04-09T00:55:19;61876.00;;;8.14
48628;BMP280;34424;52.234;6.500;2023-04-09T01:00:24;61904.63;;;8.16
48628;BMP280;34424;52.234;6.500;2023-04-09T01:05:40;61892.63;;;8.15
48628;BMP280;34424;52.234;6.500;2023-04-09T01:10:49;61911.81;;;8.13
48628;BMP280;34424;52.234;6.500;2023-04-09T01:15:59;61870.28;;;8.13
48628;BMP280;34424;52.234;6.500;2023-04-09T01:21:06;61906.63;;;8.13
48628;BMP280;34424;52.234;6.500;2023-04-09T01:26:20;61886.31;;;8.11
48628;BMP280;34424;52.234;6.500;2023-04-09T01:31:28;61877.88;;;8.06
48628;BMP280;34424;52.234;6.500;2023-04-09T01:36:32;61891.84;;;8.04
48628;BMP280;34424;52.234;6.500;2023-04-09T01:41:38;61896.13;;;8.08
48628;BMP280;34424;52.234;6.500;2023-04-09T01:46:45;61875.22;;;8.03
48628;BMP280;34424;52.234;6.500;2023-04-09T01:51:48;61884.00;;;8.01
48628;BMP280;34424;52.234;6.500;2023-04-09T01:56:51;61881.88;;;7.99
48628;BMP280;34424;52.234;6.500;2023-04-09T02:01:59;61863.66;;;7.97
48628;BMP280;34424;52.234;6.500;2023-04-09T02:07:05;61848.56;;;7.95
48628;BMP280;34424;52.234;6.500;2023-04-09T02:12:13;61866.66;;;7.92
48628;BMP280;34424;52.234;6.500;2023-04-09T02:17:19;61835.00;;;7.92
48628;BMP280;34424;52.234;6.500;2023-04-09T02:22:21;61876.03;;;7.94
48628;BMP280;34424;52.234;6.500;2023-04-09T02:27:24;61859.41;;;7.93
48628;BMP280;34424;52.234;6.500;2023-04-09T02:32:28;61856.22;;;7.90
48628;BMP280;34424;52.234;6.500;2023-04-09T02:37:31;61860.34;;;7.89
48628;BMP280;34424;52.234;6.500;2023-04-09T02:42:33;61859.81;;;7.88
48628;BMP280;34424;52.234;6.500;2023-04-09T02:47:37;61841.13;;;7.88
48628;BMP280;34424;52.234;6.500;2023-04-09T02:52:40;61851.50;;;7.88
48628;BMP280;34424;52.234;6.500;2023-04-09T02:57:43;61871.22;;;7.87
48628;BMP280;34424;52.234;6.500;2023-04-09T03:02:47;61848.84;;;7.85
48628;BMP280;34424;52.234;6.500;2023-04-09T03:07:50;61837.94;;;7.85
48628;BMP280;34424;52.234;6.500;2023-04-09T03:12:52;61821.31;;;7.84
48628;BMP280;34424;52.234;6.500;2023-04-09T03:17:56;61826.97;;;7.82
48628;BMP280;34424;52.234;6.500;2023-04-09T03:22:59;61842.41;;;7.77
48628;BMP280;34424;52.234;6.500;2023-04-09T03:28:02;61826.25;;;7.74
48628;BMP280;34424;52.234;6.500;2023-04-09T03:33:06;61817.47;;;7.75
48628;BMP280;34424;52.234;6.500;2023-04-09T03:38:08;61811.69;;;7.72
48628;BMP280;34424;52.234;6.500;2023-04-09T03:43:11;61863.03;;;7.72
48628;BMP280;34424;52.234;6.500;2023-04-09T03:48:15;61835.94;;;7.65
48628;BMP280;34424;52.234;6.500;2023-04-09T03:53:18;61794.94;;;7.66
48628;BMP280;34424;52.234;6.500;2023-04-09T03:58:20;61831.31;;;7.68
48628;BMP280;34424;52.234;6.500;2023-04-09T04:03:24;61842.13;;;7.64
48628;BMP280;34424;52.234;6.500;2023-04-09T04:08:27;61857.28;;;7.68
48628;BMP280;34424;52.234;6.500;2023-04-09T04:13:30;61848.97;;;7.68
48628;BMP280;34424;52.234;6.500;2023-04-09T04:18:34;61787.59;;;7.61
48628;BMP280;34424;52.234;6.500;2023-04-09T04:23:37;61822.69;;;7.55
48628;BMP280;34424;52.234;6.500;2023-04-09T04:28:39;61814.34;;;7.52
48628;BMP280;34424;52.234;6.500;2023-04-09T04:33:43;61810.56;;;7.46
48628;BMP280;34424;52.234;6.500;2023-04-09T04:38:46;61807.25;;;7.38
48628;BMP280;34424;52.234;6.500;2023-04-09T04:43:48;61763.75;;;7.19
48628;BMP280;34424;52.234;6.500;2023-04-09T04:48:52;61750.94;;;6.82
48628;BMP280;34424;52.234;6.500;2023-04-09T04:53:55;61716.88;;;6.44
48628;BMP280;34424;52.234;6.500;2023-04-09T04:58:59;61716.03;;;6.11
48628;BMP280;34424;52.234;6.500;2023-04-09T05:04:03;61665.22;;;5.87
48628;BMP280;34424;52.234;6.500;2023-04-09T05:09:05;61618.81;;;5.72
48628;BMP280;34424;52.234;6.500;2023-04-09T05:14:08;61647.47;;;5.60
48628;BMP280;34424;52.234;6.500;2023-04-09T05:19:12;61616.44;;;5.60
48628;BMP280;34424;52.234;6.500;2023-04-09T05:24:15;61644.94;;;5.63
48628;BMP280;34424;52.234;6.500;2023-04-09T05:29:18;61648.13;;;5.66
48628;BMP280;34424;52.234;6.500;2023-04-09T05:34:22;61661.13;;;5.68
48628;BMP280;34424;52.234;6.500;2023-04-09T05:39:25;61658.59;;;5.71
48628;BMP280;34424;52.234;6.500;2023-04-09T05:44:28;61684.66;;;5.78
48628;BMP280;34424;52.234;6.500;2023-04-09T05:49:32;61648.63;;;5.86
48628;BMP280;34424;52.234;6.500;2023-04-09T05:54:35;61684.13;;;5.98
48628;BMP280;34424;52.234;6.500;2023-04-09T05:59:37;61678.22;;;6.09
48628;BMP280;34424;52.234;6.500;2023-04-09T06:04:41;61684.91;;;6.28
48628;BMP280;34424;52.234;6.500;2023-04-09T06:09:44;61706.16;;;6.51
48628;BMP280;34424;52.234;6.500;2023-04-09T06:14:47;61733.44;;;6.65
48628;BMP280;34424;52.234;6.500;2023-04-09T06:19:52;61762.56;;;6.90
48628;BMP280;34424;52.234;6.500;2023-04-09T06:24:55;61781.19;;;7.11
48628;BMP280;34424;52.234;6.500;2023-04-09T06:29:57;61851.09;;;7.92
48628;BMP280;34424;52.234;6.500;2023-04-09T06:35:01;62034.75;;;9.80
48628;BMP280;34424;52.234;6.500;2023-04-09T06:40:05;62184.84;;;11.49
48628;BMP280;34424;52.234;6.500;2023-04-09T06:45:09;62264.56;;;12.15
48628;BMP280;34424;52.234;6.500;2023-04-09T06:50:13;62348.06;;;12.84
48628;BMP280;34424;52.234;6.500;2023-04-09T06:55:16;62399.16;;;13.26
48628;BMP280;34424;52.234;6.500;2023-04-09T07:00:19;62439.22;;;13.94
48628;BMP280;34424;52.234;6.500;2023-04-09T07:05:24;62489.66;;;14.54
48628;BMP280;34424;52.234;6.500;2023-04-09T07:10:27;62503.19;;;14.77
48628;BMP280;34424;52.234;6.500;2023-04-09T07:15:30;62575.66;;;15.36
48628;BMP280;34424;52.234;6.500;2023-04-09T07:20:34;62726.03;;;15.96
48628;BMP280;34424;52.234;6.500;2023-04-09T07:25:37;62807.84;;;16.39
48628;BMP280;34424;52.234;6.500;2023-04-09T07:30:39;62680.09;;;16.15
48628;BMP280;34424;52.234;6.500;2023-04-09T07:35:43;62686.78;;;16.37
48628;BMP280;34424;52.234;6.500;2023-04-09T07:40:47;62903.28;;;17.02
48628;BMP280;34424;52.234;6.500;2023-04-09T07:45:49;62807.41;;;16.71
48628;BMP280;34424;52.234;6.500;2023-04-09T07:50:54;62867.28;;;17.81
48628;BMP280;34424;52.234;6.500;2023-04-09T07:55:57;62800.31;;;17.49
48628;BMP280;34424;52.234;6.500;2023-04-09T08:00:59;62837.78;;;17.83
48628;BMP280;34424;52.234;6.500;2023-04-09T08:06:04;62717.69;;;16.58
48628;BMP280;34424;52.234;6.500;2023-04-09T08:11:06;62676.25;;;16.37
48628;BMP280;34424;52.234;6.500;2023-04-09T08:16:09;62635.22;;;16.05
48628;BMP280;34424;52.234;6.500;2023-04-09T08:21:13;62746.06;;;17.18
48628;BMP280;34424;52.234;6.500;2023-04-09T08:26:16;62661.78;;;16.20
48628;BMP280;34424;52.234;6.500;2023-04-09T08:31:18;62598.59;;;15.55
48628;BMP280;34424;52.234;6.500;2023-04-09T08:36:23;62714.25;;;16.73
48628;BMP280;34424;52.234;6.500;2023-04-09T08:41:27;62705.19;;;16.67
48628;BMP280;34424;52.234;6.500;2023-04-09T08:46:34;62875.13;;;18.10
48628;BMP280;34424;52.234;6.500;2023-04-09T08:51:38;62954.41;;;18.81
48628;BMP280;34424;52.234;6.500;2023-04-09T08:56:46;63037.63;;;19.32
48628;BMP280;34424;52.234;6.500;2023-04-09T09:02:05;62980.72;;;18.76
48628;BMP280;34424;52.234;6.500;2023-04-09T09:07:09;62977.50;;;18.73
48628;BMP280;34424;52.234;6.500;2023-04-09T09:12:29;62971.88;;;18.85
48628;BMP280;34424;52.234;6.500;2023-04-09T09:17:33;63009.47;;;19.23
48628;BMP280;34424;52.234;6.500;2023-04-09T09:22:55;62919.97;;;18.43
48628;BMP280;34424;52.234;6.500;2023-04-09T09:28:06;63074.22;;;19.72
48628;BMP280;34424;52.234;6.500;2023-04-09T09:33:10;62948.78;;;18.60
48628;BMP280;34424;52.234;6.500;2023-04-09T09:38:14;63059.06;;;19.50
48628;BMP280;34424;52.234;6.500;2023-04-09T09:43:17;63092.59;;;19.31
48628;BMP280;34424;52.234;6.500;2023-04-09T09:48:20;63079.97;;;19.67
48628;BMP280;34424;52.234;6.500;2023-04-09T09:53:24;62972.84;;;18.78
48628;BMP280;34424;52.234;6.500;2023-04-09T09:58:33;62972.13;;;18.67
48628;BMP280;34424;52.234;6.500;2023-04-09T10:03:38;63090.59;;;19.70
48628;BMP280;34424;52.234;6.500;2023-04-09T10:08:43;63012.91;;;19.06
48628;BMP280;34424;52.234;6.500;2023-04-09T10:13:49;62970.94;;;18.91
48628;BMP280;34424;52.234;6.500;2023-04-09T10:18:55;62918.16;;;18.61
48628;BMP280;34424;52.234;6.500;2023-04-09T10:24:00;63023.97;;;19.04
48628;BMP280;34424;52.234;6.500;2023-04-09T10:29:07;63003.16;;;19.24
48628;BMP280;34424;52.234;6.500;2023-04-09T10:34:15;63098.72;;;19.82
48628;BMP280;34424;52.234;6.500;2023-04-09T10:39:20;63158.13;;;20.26
48628;BMP280;34424;52.234;6.500;2023-04-09T10:44:24;63002.16;;;18.93
48628;BMP280;34424;52.234;6.500;2023-04-09T10:49:34;62924.28;;;18.47
48628;BMP280;34424;52.234;6.500;2023-04-09T10:54:41;62941.34;;;18.58
48628;BMP280;34424;52.234;6.500;2023-04-09T10:59:51;63029.66;;;19.29
48628;BMP280;34424;52.234;6.500;2023-04-09T11:05:01;62891.38;;;18.36
48628;BMP280;34424;52.234;6.500;2023-04-09T11:10:09;63032.59;;;19.50
48628;BMP280;34424;52.234;6.500;2023-04-09T11:15:14;62958.19;;;18.54
48628;BMP280;34424;52.234;6.500;2023-04-09T11:20:19;63029.66;;;19.29
48628;BMP280;34424;52.234;6.500;2023-04-09T11:25:26;63034.84;;;19.22
48628;BMP280;34424;52.234;6.500;2023-04-09T11:30:28;63068.06;;;19.51
48628;BMP280;34424;52.234;6.500;2023-04-09T11:35:32;63001.84;;;18.76
48628;BMP280;34424;52.234;6.500;2023-04-09T11:40:39;62881.41;;;18.06
48628;BMP280;34424;52.234;6.500;2023-04-09T11:45:48;62965.97;;;18.77
48628;BMP280;34424;52.234;6.500;2023-04-09T11:50:51;62811.06;;;17.30
48628;BMP280;34424;52.234;6.500;2023-04-09T11:55:55;62634.81;;;16.12
48628;BMP280;34424;52.234;6.500;2023-04-09T12:00:59;62734.81;;;17.07
48628;BMP280;34424;52.234;6.500;2023-04-09T12:06:05;63020.34;;;19.08
48628;BMP280;34424;52.234;6.500;2023-04-09T12:11:10;63020.16;;;19.30
48628;BMP280;34424;52.234;6.500;2023-04-09T12:16:13;62849.28;;;17.76
48628;BMP280;34424;52.234;6.500;2023-04-09T12:21:23;62750.22;;;16.82
48628;BMP280;34424;52.234;6.500;2023-04-09T12:26:27;62892.78;;;18.25
48628;BMP280;34424;52.234;6.500;2023-04-09T12:31:30;63062.50;;;19.33
48628;BMP280;34424;52.234;6.500;2023-04-09T12:36:33;62912.81;;;18.24
48628;BMP280;34424;52.234;6.500;2023-04-09T12:41:37;62716.13;;;16.60
48628;BMP280;34424;52.234;6.500;2023-04-09T12:46:39;62827.63;;;17.43
48628;BMP280;34424;52.234;6.500;2023-04-09T12:51:42;62767.09;;;17.15
48628;BMP280;34424;52.234;6.500;2023-04-09T12:56:46;62831.50;;;17.54
48628;BMP280;34424;52.234;6.500;2023-04-09T13:01:50;62753.78;;;16.75
48628;BMP280;34424;52.234;6.500;2023-04-09T13:06:53;62680.63;;;16.46
48628;BMP280;34424;52.234;6.500;2023-04-09T13:11:57;62908.13;;;17.94
48628;BMP280;34424;52.234;6.500;2023-04-09T13:16:59;62836.44;;;17.99
48628;BMP280;34424;52.234;6.500;2023-04-09T13:22:02;62740.38;;;16.63
48628;BMP280;34424;52.234;6.500;2023-04-09T13:27:09;62635.47;;;16.20
48628;BMP280;34424;52.234;6.500;2023-04-09T13:32:12;62841.81;;;17.71
48628;BMP280;34424;52.234;6.500;2023-04-09T13:37:15;62814.00;;;17.80
48628;BMP280;34424;52.234;6.500;2023-04-09T13:42:18;62782.78;;;17.08
48628;BMP280;34424;52.234;6.500;2023-04-09T13:47:21;62691.13;;;16.13
48628;BMP280;34424;52.234;6.500;2023-04-09T13:52:24;62606.31;;;15.75
48628;BMP280;34424;52.234;6.500;2023-04-09T13:57:31;62560.06;;;15.46
48628;BMP280;34424;52.234;6.500;2023-04-09T14:02:34;62807.41;;;17.31
48628;BMP280;34424;52.234;6.500;2023-04-09T14:07:36;62895.25;;;18.15
48628;BMP280;34424;52.234;6.500;2023-04-09T14:12:41;62879.41;;;18.15
48628;BMP280;34424;52.234;6.500;2023-04-09T14:17:44;62890.91;;;18.05
48628;BMP280;34424;52.234;6.500;2023-04-09T14:22:47;62895.22;;;18.12
48628;BMP280;34424;52.234;6.500;2023-04-09T14:27:51;63032.50;;;19.10
48628;BMP280;34424;52.234;6.500;2023-04-09T14:32:53;62824.44;;;17.42
48628;BMP280;34424;52.234;6.500;2023-04-09T14:37:56;62684.94;;;16.22
48628;BMP280;34424;52.234;6.500;2023-04-09T14:43:00;62676.66;;;16.30
48628;BMP280;34424;52.234;6.500;2023-04-09T14:48:02;62651.91;;;16.28
48628;BMP280;34424;52.234;6.500;2023-04-09T14:53:06;62679.06;;;16.17
48628;BMP280;34424;52.234;6.500;2023-04-09T14:58:10;62660.34;;;15.99
48628;BMP280;34424;52.234;6.500;2023-04-09T15:03:12;62692.75;;;16.47
48628;BMP280;34424;52.234;6.500;2023-04-09T15:08:15;62713.75;;;16.45
48628;BMP280;34424;52.234;6.500;2023-04-09T15:13:20;62703.88;;;16.83
48628;BMP280;34424;52.234;6.500;2023-04-09T15:18:23;62840.78;;;17.73
48628;BMP280;34424;52.234;6.500;2023-04-09T15:23:25;62901.16;;;18.20
48628;BMP280;34424;52.234;6.500;2023-04-09T15:28:29;62892.13;;;18.17
48628;BMP280;34424;52.234;6.500;2023-04-09T15:33:32;62942.84;;;18.52
48628;BMP280;34424;52.234;6.500;2023-04-09T15:38:34;62955.88;;;18.75
48628;BMP280;34424;52.234;6.500;2023-04-09T15:43:38;62837.56;;;17.70
48628;BMP280;34424;52.234;6.500;2023-04-09T15:48:41;62729.31;;;16.62
48628;BMP280;34424;52.234;6.500;2023-04-09T15:53:44;62761.53;;;16.98
48628;BMP280;34424;52.234;6.500;2023-04-09T15:58:48;62729.22;;;16.57
48628;BMP280;34424;52.234;6.500;2023-04-09T16:03:50;62674.25;;;16.42
48628;BMP280;34424;52.234;6.500;2023-04-09T16:08:53;62648.53;;;16.15
48628;BMP280;34424;52.234;6.500;2023-04-09T16:13:58;62616.28;;;15.75
48628;BMP280;34424;52.234;6.500;2023-04-09T16:19:00;62692.03;;;16.37
48628;BMP280;34424;52.234;6.500;2023-04-09T16:24:03;62736.81;;;17.02
48628;BMP280;34424;52.234;6.500;2023-04-09T16:29:07;62769.09;;;17.10
48628;BMP280;34424;52.234;6.500;2023-04-09T16:34:11;62792.66;;;17.32
48628;BMP280;34424;52.234;6.500;2023-04-09T16:39:13;62745.97;;;17.13
48628;BMP280;34424;52.234;6.500;2023-04-09T16:44:17;62737.41;;;16.72
48628;BMP280;34424;52.234;6.500;2023-04-09T16:49:20;62697.91;;;16.72
48628;BMP280;34424;52.234;6.500;2023-04-09T16:54:23;62513.44;;;15.22
48628;BMP280;34424;52.234;6.500;2023-04-09T16:59:27;62555.09;;;15.01
48628;BMP280;34424;52.234;6.500;2023-04-09T17:04:29;62438.09;;;14.45
48628;BMP280;34424;52.234;6.500;2023-04-09T17:09:34;62448.06;;;13.90
48628;BMP280;34424;52.234;6.500;2023-04-09T17:14:38;62385.78;;;13.65
48628;BMP280;34424;52.234;6.500;2023-04-09T17:19:42;62382.28;;;13.74
48628;BMP280;34424;52.234;6.500;2023-04-09T17:24:44;62386.41;;;13.71
48628;BMP280;34424;52.234;6.500;2023-04-09T17:29:48;62371.81;;;13.47
48628;BMP280;34424;52.234;6.500;2023-04-09T17:34:52;62330.88;;;13.15
48628;BMP280;34424;52.234;6.500;2023-04-09T17:39:54;62282.69;;;12.84
48628;BMP280;34424;52.234;6.500;2023-04-09T17:44:58;62263.94;;;12.62
48628;BMP280;34424;52.234;6.500;2023-04-09T17:50:01;62280.28;;;12.42
48628;BMP280;34424;52.234;6.500;2023-04-09T17:55:04;62209.19;;;12.14
48628;BMP280;34424;52.234;6.500;2023-04-09T18:00:10;62195.09;;;11.88
48628;BMP280;34424;52.234;6.500;2023-04-09T18:05:13;62158.00;;;11.63
48628;BMP280;34424;52.234;6.500;2023-04-09T18:10:16;62148.00;;;11.33
48628;BMP280;34424;52.234;6.500;2023-04-09T18:15:21;62113.41;;;11.00
48628;BMP280;34424;52.234;6.500;2023-04-09T18:20:23;62109.38;;;10.82
48628;BMP280;34424;52.234;6.500;2023-04-09T18:25:26;62065.75;;;10.65
48628;BMP280;34424;52.234;6.500;2023-04-09T18:30:30;62027.75;;;10.41
48628;BMP280;34424;52.234;6.500;2023-04-09T18:35:33;62023.22;;;10.24
48628;BMP280;34424;52.234;6.500;2023-04-09T18:40:39;61996.50;;;9.94
48628;BMP280;34424;52.234;6.500;2023-04-09T18:45:43;61961.44;;;9.60
48628;BMP280;34424;52.234;6.500;2023-04-09T18:50:46;61927.06;;;9.35
48628;BMP280;34424;52.234;6.500;2023-04-09T18:55:48;61911.31;;;9.27
48628;BMP280;34424;52.234;6.500;2023-04-09T19:00:52;61921.38;;;9.12
48628;BMP280;34424;52.234;6.500;2023-04-09T19:05:55;61868.94;;;8.91
48628;BMP280;34424;52.234;6.500;2023-04-09T19:11:00;61907.69;;;8.81
48628;BMP280;34424;52.234;6.500;2023-04-09T19:16:05;61905.22;;;8.86
48628;BMP280;34424;52.234;6.500;2023-04-09T19:21:09;61879.75;;;8.87
48628;BMP280;34424;52.234;6.500;2023-04-09T19:26:12;61859.06;;;8.92
48628;BMP280;34424;52.234;6.500;2023-04-09T19:31:16;61893.88;;;8.90
48628;BMP280;34424;52.234;6.500;2023-04-09T19:36:18;61886.44;;;8.83
48628;BMP280;34424;52.234;6.500;2023-04-09T19:41:23;61884.19;;;8.76
48628;BMP280;34424;52.234;6.500;2023-04-09T19:46:26;61860.41;;;8.58
48628;BMP280;34424;52.234;6.500;2023-04-09T19:51:29;61874.19;;;8.47
48628;BMP280;34424;52.234;6.500;2023-04-09T19:56:32;61829.22;;;8.34
48628;BMP280;34424;52.234;6.500;2023-04-09T20:01:36;61839.22;;;8.18
48628;BMP280;34424;52.234;6.500;2023-04-09T20:06:41;61802.19;;;8.10
48628;BMP280;34424;52.234;6.500;2023-04-09T20:11:44;61783.38;;;8.05
48628;BMP280;34424;52.234;6.500;2023-04-09T20:16:48;61790.34;;;7.91
48628;BMP280;34424;52.234;6.500;2023-04-09T20:21:51;61804.69;;;7.83
48628;BMP280;34424;52.234;6.500;2023-04-09T20:26:55;61820.72;;;7.81
48628;BMP280;34424;52.234;6.500;2023-04-09T20:32:01;61800.56;;;7.84
48628;BMP280;34424;52.234;6.500;2023-04-09T20:37:03;61804.22;;;7.85
48628;BMP280;34424;52.234;6.500;2023-04-09T20:42:06;61772.53;;;7.84
48628;BMP280;34424;52.234;6.500;2023-04-09T20:47:10;61785.00;;;7.84
48628;BMP280;34424;52.234;6.500;2023-04-09T20:52:13;61769.75;;;7.77
48628;BMP280;34424;52.234;6.500;2023-04-09T20:57:16;61779.91;;;7.66
48628;BMP280;34424;52.234;6.500;2023-04-09T21:02:20;61741.97;;;7.40
48628;BMP280;34424;52.234;6.500;2023-04-09T21:07:24;61761.19;;;7.41
48628;BMP280;34424;52.234;6.500;2023-04-09T21:12:26;61759.22;;;7.47
48628;BMP280;34424;52.234;6.500;2023-04-09T21:17:31;61752.75;;;7.35
48628;BMP280;34424;52.234;6.500;2023-04-09T21:22:34;61745.19;;;7.23
48628;BMP280;34424;52.234;6.500;2023-04-09T21:27:36;61750.81;;;7.19
48628;BMP280;34424;52.234;6.500;2023-04-09T21:32:40;61720.28;;;7.22
48628;BMP280;34424;52.234;6.500;2023-04-09T21:37:43;61734.53;;;7.11
48628;BMP280;34424;52.234;6.500;2023-04-09T21:42:46;61735.88;;;7.02
48628;BMP280;34424;52.234;6.500;2023-04-09T21:47:50;61695.31;;;6.95
48628;BMP280;34424;52.234;6.500;2023-04-09T21:52:52;61688.59;;;6.74
48628;BMP280;34424;52.234;6.500;2023-04-09T21:57:55;61701.44;;;6.69
48628;BMP280;34424;52.234;6.500;2023-04-09T22:02:59;61660.47;;;6.67
48628;BMP280;34424;52.234;6.500;2023-04-09T22:08:02;61694.25;;;6.72
48628;BMP280;34424;52.234;6.500;2023-04-09T22:13:05;61690.59;;;6.71
48628;BMP280;34424;52.234;6.500;2023-04-09T22:18:09;61654.69;;;6.64
48628;BMP280;34424;52.234;6.500;2023-04-09T22:23:12;61662.47;;;6.64
48628;BMP280;34424;52.234;6.500;2023-04-09T22:28:14;61656.22;;;6.63
48628;BMP280;34424;52.234;6.500;2023-04-09T22:33:18;61682.09;;;6.40
48628;BMP280;34424;52.234;6.500;2023-04-09T22:38:21;61632.72;;;6.33
48628;BMP280;34424;52.234;6.500;2023-04-09T22:43:24;61645.59;;;6.30
48628;BMP280;34424;52.234;6.500;2023-04-09T22:48:28;61642.50;;;6.10
48628;BMP280;34424;52.234;6.500;2023-04-09T22:53:31;61618.63;;;6.07
48628;BMP280;34424;52.234;6.500;2023-04-09T22:58:34;61619.69;;;6.08
48628;BMP280;34424;52.234;6.500;2023-04-09T23:03:38;61639.59;;;6.17
48628;BMP280;34424;52.234;6.500;2023-04-09T23:08:40;61617.38;;;6.18
48628;BMP280;34424;52.234;6.500;2023-04-09T23:13:43;61637.31;;;6.30
48628;BMP280;34424;52.234;6.500;2023-04-09T23:18:47;61663.13;;;6.27
48628;BMP280;34424;52.234;6.500;2023-04-09T23:23:50;61653.47;;;6.35
48628;BMP280;34424;52.234;6.500;2023-04-09T23:28:53;61641.94;;;6.29
48628;BMP280;34424;52.234;6.500;2023-04-09T23:33:57;61640.38;;;6.28
48628;BMP280;34424;52.234;6.500;2023-04-09T23:39:00;61660.06;;;6.29
48628;BMP280;34424;52.234;6.500;2023-04-09T23:44:03;61647.72;;;6.32
48628;BMP280;34424;52.234;6.500;2023-04-09T23:49:07;61656.13;;;6.38
48628;BMP280;34424;52.234;6.500;2023-04-09T23:54:09;61615.13;;;6.33
48628;BMP280;34424;52.234;6.500;2023-04-09T23:59:12;61669.53;;;6.36
